sensor_id;sensor_type;location;lat;lon;timestamp;temperature;humidity
12634;DHT22;6382;48.614;8.880;2023-05-07T00:01:39;11.50;99.90
12634;DHT22;6382;48.614;8.880;2023-05-07T00:04:06;11.50;99.90
12634;DHT22;6382;48.614;8.880;2023-05-07T00:06:34;11.50;99.90
12634;DHT22;6382;48.614;8.880;2023-05-07T00:09:01;11.60;99.90
12634;DHT22;6382;48.614;8.880;2023-05-07T00:11:27;11.40;99.90
12634;DHT22;6382;48.614;8.880;2023-05-07T00:13:54;11.40;99.90
12634;DHT22;6382;48.614;8.880;2023-05-07T00:16:21;11.40;99.90
12634;DHT22;6382;48.614;8.880;2023-05-07T00:18:48;11.40;99.90
12634;DHT22;6382;48.614;8.880;2023-05-07T00:21:14;11.30;99.90
12634;DHT22;6382;48.614;8.880;2023-05-07T00:23:41;11.30;99.90
12634;DHT22;6382;48.614;8.880;2023-05-07T00:26:08;11.30;99.90
12634;DHT22;6382;48.614;8.880;2023-05-07T00:28:35;11.40;99.90
12634;DHT22;6382;48.614;8.880;2023-05-07T00:31:01;11.30;99.90
12634;DHT22;6382;48.614;8.880;2023-05-07T00:33:28;11.30;99.90
12634;DHT22;6382;48.614;8.880;2023-05-07T00:35:55;11.30;99.90
12634;DHT22;6382;48.614;8.880;2023-05-07T00:38:21;11.30;99.90
12634;DHT22;6382;48.614;8.880;2023-05-07T00:40:48;11.30;99.90
12634;DHT22;6382;48.614;8.880;2023-05-07T00:43:15;11.30;99.90
12634;DHT22;6382;48.614;8.880;2023-05-07T00:45:41;11.30;99.90
12634;DHT22;6382;48.614;8.880;2023-05-07T00:48:08;11.30;99.90
12634;DHT22;6382;48.614;8.880;2023-05-07T00:50:35;11.20;99.90
12634;DHT22;6382;48.614;8.880;2023-05-07T00:53:02;11.20;99.90
12634;DHT22;6382;48.614;8.880;2023-05-07T00:55:29;11.10;99.90
12634;DHT22;6382;48.614;8.880;2023-05-07T00:57:56;11.10;99.90
12634;DHT22;6382;48.614;8.880;2023-05-07T01:00:23;13.60;99.90
12634;DHT22;6382;48.614;8.880;2023-05-07T01:02:51;11.20;99.90
12634;DHT22;6382;48.614;8.880;2023-05-07T01:05:19;11.20;99.90
12634;DHT22;6382;48.614;8.880;2023-05-07T01:07:46;11.20;99.90
12634;DHT22;6382;48.614;8.880;2023-05-07T01:10:14;11.20;99.90
12634;DHT22;6382;48.614;8.880;2023-05-07T01:12:41;11.20;99.90
12634;DHT22;6382;48.614;8.880;2023-05-07T01:15:09;11.20;99.90
12634;DHT22;6382;48.614;8.880;2023-05-07T01:17:36;11.20;99.90
12634;DHT22;6382;48.614;8.880;2023-05-07T01:20:04;11.10;99.90
12634;DHT22;6382;48.614;8.880;2023-05-07T01:22:34;11.20;99.90
12634;DHT22;6382;48.614;8.880;2023-05-07T01:25:03;11.10;99.90
12634;DHT22;6382;48.614;8.880;2023-05-07T01:27:30;11.10;99.90
12634;DHT22;6382;48.614;8.880;2023-05-07T01:29:57;11.10;99.90
12634;DHT22;6382;48.614;8.880;2023-05-07T01:34:56;11.10;99.90
12634;DHT22;6382;48.614;8.880;2023-05-07T01:37:24;11.10;99.90
12634;DHT22;6382;48.614;8.880;2023-05-07T01:39:51;11.00;99.90
12634;DHT22;6382;48.614;8.880;2023-05-07T01:42:19;11.00;99.90
12634;DHT22;6382;48.614;8.880;2023-05-07T01:44:46;10.70;99.90
12634;DHT22;6382;48.614;8.880;2023-05-07T01:47:13;11.00;99.90
12634;DHT22;6382;48.614;8.880;2023-05-07T01:49:40;11.00;99.90
12634;DHT22;6382;48.614;8.880;2023-05-07T01:52:09;10.90;99.90
12634;DHT22;6382;48.614;8.880;2023-05-07T01:54:36;10.90;99.90
12634;DHT22;6382;48.614;8.880;2023-05-07T01:57:03;10.80;99.90
12634;DHT22;6382;48.614;8.880;2023-05-07T01:59:30;11.20;99.90
12634;DHT22;6382;48.614;8.880;2023-05-07T02:01:57;10.80;99.90
12634;DHT22;6382;48.614;8.880;2023-05-07T02:04:23;10.70;99.90
12634;DHT22;6382;48.614;8.880;2023-05-07T02:06:51;10.80;99.90
12634;DHT22;6382;48.614;8.880;2023-05-07T02:09:19;10.70;99.90
12634;DHT22;6382;48.614;8.880;2023-05-07T02:11:46;10.70;99.90
12634;DHT22;6382;48.614;8.880;2023-05-07T02:14:13;10.70;99.90
12634;DHT22;6382;48.614;8.880;2023-05-07T02:16:39;10.70;99.90
12634;DHT22;6382;48.614;8.880;2023-05-07T02:19:06;10.70;99.90
12634;DHT22;6382;48.614;8.880;2023-05-07T02:21:33;10.70;99.90
12634;DHT22;6382;48.614;8.880;2023-05-07T02:24:00;10.70;99.90
12634;DHT22;6382;48.614;8.880;2023-05-07T02:26:26;10.60;99.90
12634;DHT22;6382;48.614;8.880;2023-05-07T02:28:53;10.60;99.90
12634;DHT22;6382;48.614;8.880;2023-05-07T02:31:20;10.50;99.90
12634;DHT22;6382;48.614;8.880;2023-05-07T02:33:47;10.60;99.90
12634;DHT22;6382;48.614;8.880;2023-05-07T02:36:13;10.60;99.90
12634;DHT22;6382;48.614;8.880;2023-05-07T02:38:40;10.60;99.90
12634;DHT22;6382;48.614;8.880;2023-05-07T02:41:07;10.60;99.90
12634;DHT22;6382;48.614;8.880;2023-05-07T02:43:34;10.60;99.90
12634;DHT22;6382;48.614;8.880;2023-05-07T02:46:04;10.60;99.90
12634;DHT22;6382;48.614;8.880;2023-05-07T02:48:31;10.60;99.90
12634;DHT22;6382;48.614;8.880;2023-05-07T02:50:58;10.80;99.90
12634;DHT22;6382;48.614;8.880;2023-05-07T02:53:25;10.60;99.90
12634;DHT22;6382;48.614;8.880;2023-05-07T02:55:53;10.60;99.90
12634;DHT22;6382;48.614;8.880;2023-05-07T02:58:20;10.60;99.90
12634;DHT22;6382;48.614;8.880;2023-05-07T03:00:46;10.60;99.90
12634;DHT22;6382;48.614;8.880;2023-05-07T03:03:13;10.60;99.90
12634;DHT22;6382;48.614;8.880;2023-05-07T03:05:40;10.50;99.90
12634;DHT22;6382;48.614;8.880;2023-05-07T03:08:07;10.50;99.90
12634;DHT22;6382;48.614;8.880;2023-05-07T03:10:35;10.40;99.90
12634;DHT22;6382;48.614;8.880;2023-05-07T03:13:01;10.40;99.90
12634;DHT22;6382;48.614;8.880;2023-05-07T03:15:28;10.30;99.90
12634;DHT22;6382;48.614;8.880;2023-05-07T03:17:55;10.10;99.90
12634;DHT22;6382;48.614;8.880;2023-05-07T03:20:22;10.10;99.90
12634;DHT22;6382;48.614;8.880;2023-05-07T03:22:49;10.00;99.90
12634;DHT22;6382;48.614;8.880;2023-05-07T03:25:16;10.50;99.90
12634;DHT22;6382;48.614;8.880;2023-05-07T03:27:43;9.90;99.90
12634;DHT22;6382;48.614;8.880;2023-05-07T03:30:10;9.90;99.90
12634;DHT22;6382;48.614;8.880;2023-05-07T03:32:37;9.90;99.90
12634;DHT22;6382;48.614;8.880;2023-05-07T03:35:04;9.90;99.90
12634;DHT22;6382;48.614;8.880;2023-05-07T03:37:31;9.90;99.90
12634;DHT22;6382;48.614;8.880;2023-05-07T03:39:57;9.90;99.90
12634;DHT22;6382;48.614;8.880;2023-05-07T03:42:24;9.90;99.90
12634;DHT22;6382;48.614;8.880;2023-05-07T03:44:51;9.80;99.90
12634;DHT22;6382;48.614;8.880;2023-05-07T03:47:18;9.80;99.90
12634;DHT22;6382;48.614;8.880;2023-05-07T03:49:44;9.80;99.90
12634;DHT22;6382;48.614;8.880;2023-05-07T03:52:11;9.80;99.90
12634;DHT22;6382;48.614;8.880;2023-05-07T03:54:38;9.80;99.90
12634;DHT22;6382;48.614;8.880;2023-05-07T03:57:04;9.80;99.90
12634;DHT22;6382;48.614;8.880;2023-05-07T03:59:31;9.80;99.90
12634;DHT22;6382;48.614;8.880;2023-05-07T04:01:58;9.90;99.90
12634;DHT22;6382;48.614;8.880;2023-05-07T04:04:25;10.00;99.90
12634;DHT22;6382;48.614;8.880;2023-05-07T04:06:52;9.80;99.90
12634;DHT22;6382;48.614;8.880;2023-05-07T04:09:19;9.70;99.90
12634;DHT22;6382;48.614;8.880;2023-05-07T04:11:46;9.70;99.90
12634;DHT22;6382;48.614;8.880;2023-05-07T04:14:13;9.70;99.90
12634;DHT22;6382;48.614;8.880;2023-05-07T04:16:40;9.80;99.90
12634;DHT22;6382;48.614;8.880;2023-05-07T04:19:06;9.80;99.90
12634;DHT22;6382;48.614;8.880;2023-05-07T04:21:33;9.80;99.90
12634;DHT22;6382;48.614;8.880;2023-05-07T04:24:00;9.80;99.90
12634;DHT22;6382;48.614;8.880;2023-05-07T04:26:26;9.80;99.90
12634;DHT22;6382;48.614;8.880;2023-05-07T04:28:54;9.80;99.90
12634;DHT22;6382;48.614;8.880;2023-05-07T04:31:21;9.80;99.90
12634;DHT22;6382;48.614;8.880;2023-05-07T04:33:48;9.90;99.90
12634;DHT22;6382;48.614;8.880;2023-05-07T04:36:15;10.00;99.90
12634;DHT22;6382;48.614;8.880;2023-05-07T04:38:41;10.00;99.90
12634;DHT22;6382;48.614;8.880;2023-05-07T04:41:09;10.10;99.90
12634;DHT22;6382;48.614;8.880;2023-05-07T04:43:36;10.10;99.90
12634;DHT22;6382;48.614;8.880;2023-05-07T04:46:02;10.10;99.90
12634;DHT22;6382;48.614;8.880;2023-05-07T04:48:29;10.20;99.90
12634;DHT22;6382;48.614;8.880;2023-05-07T04:50:56;10.20;99.90
12634;DHT22;6382;48.614;8.880;2023-05-07T04:53:23;10.30;99.90
12634;DHT22;6382;48.614;8.880;2023-05-07T04:55:54;10.40;99.90
12634;DHT22;6382;48.614;8.880;2023-05-07T04:58:21;10.50;99.90
12634;DHT22;6382;48.614;8.880;2023-05-07T05:00:48;11.00;99.90
12634;DHT22;6382;48.614;8.880;2023-05-07T05:03:15;10.60;99.90
12634;DHT22;6382;48.614;8.880;2023-05-07T05:05:42;10.70;99.90
12634;DHT22;6382;48.614;8.880;2023-05-07T05:08:08;10.70;99.90
12634;DHT22;6382;48.614;8.880;2023-05-07T05:10:35;10.80;99.90
12634;DHT22;6382;48.614;8.880;2023-05-07T05:13:02;11.00;99.90
12634;DHT22;6382;48.614;8.880;2023-05-07T05:15:28;11.00;99.90
12634;DHT22;6382;48.614;8.880;2023-05-07T05:17:59;11.20;99.90
12634;DHT22;6382;48.614;8.880;2023-05-07T05:20:26;13.30;99.90
12634;DHT22;6382;48.614;8.880;2023-05-07T05:22:52;11.40;99.90
12634;DHT22;6382;48.614;8.880;2023-05-07T05:25:19;11.50;99.90
12634;DHT22;6382;48.614;8.880;2023-05-07T05:27:46;11.70;99.90
12634;DHT22;6382;48.614;8.880;2023-05-07T05:30:13;11.70;99.90
12634;DHT22;6382;48.614;8.880;2023-05-07T05:32:39;11.80;99.90
12634;DHT22;6382;48.614;8.880;2023-05-07T05:35:06;11.90;99.90
12634;DHT22;6382;48.614;8.880;2023-05-07T05:37:33;12.00;99.90
12634;DHT22;6382;48.614;8.880;2023-05-07T05:40:00;12.10;99.90
12634;DHT22;6382;48.614;8.880;2023-05-07T05:42:27;12.20;99.90
12634;DHT22;6382;48.614;8.880;2023-05-07T05:44:54;12.30;99.90
12634;DHT22;6382;48.614;8.880;2023-05-07T05:47:20;12.40;99.90
12634;DHT22;6382;48.614;8.880;2023-05-07T05:49:47;12.50;99.90
12634;DHT22;6382;48.614;8.880;2023-05-07T05:52:13;12.60;99.90
12634;DHT22;6382;48.614;8.880;2023-05-07T05:54:41;12.70;99.90
12634;DHT22;6382;48.614;8.880;2023-05-07T05:57:07;12.90;99.90
12634;DHT22;6382;48.614;8.880;2023-05-07T05:59:34;14.20;99.90
12634;DHT22;6382;48.614;8.880;2023-05-07T06:02:01;13.20;99.90
12634;DHT22;6382;48.614;8.880;2023-05-07T06:04:28;13.30;99.90
12634;DHT22;6382;48.614;8.880;2023-05-07T06:06:54;13.90;99.90
12634;DHT22;6382;48.614;8.880;2023-05-07T06:09:21;15.30;99.90
12634;DHT22;6382;48.614;8.880;2023-05-07T06:11:48;13.80;99.90
12634;DHT22;6382;48.614;8.880;2023-05-07T06:14:15;13.90;99.90
12634;DHT22;6382;48.614;8.880;2023-05-07T06:16:41;14.10;99.90
12634;DHT22;6382;48.614;8.880;2023-05-07T06:19:08;14.30;99.90
12634;DHT22;6382;48.614;8.880;2023-05-07T06:21:35;14.50;99.90
12634;DHT22;6382;48.614;8.880;2023-05-07T06:24:02;14.60;99.90
12634;DHT22;6382;48.614;8.880;2023-05-07T06:26:28;14.60;99.90
12634;DHT22;6382;48.614;8.880;2023-05-07T06:28:55;14.70;99.90
12634;DHT22;6382;48.614;8.880;2023-05-07T06:31:22;15.30;99.90
12634;DHT22;6382;48.614;8.880;2023-05-07T06:33:49;14.70;99.90
12634;DHT22;6382;48.614;8.880;2023-05-07T06:36:16;14.90;99.90
12634;DHT22;6382;48.614;8.880;2023-05-07T06:38:42;14.80;99.90
12634;DHT22;6382;48.614;8.880;2023-05-07T06:41:09;14.90;99.90
12634;DHT22;6382;48.614;8.880;2023-05-07T06:43:36;14.90;99.90
12634;DHT22;6382;48.614;8.880;2023-05-07T06:46:03;14.90;99.90
12634;DHT22;6382;48.614;8.880;2023-05-07T06:48:29;15.00;99.90
12634;DHT22;6382;48.614;8.880;2023-05-07T06:50:56;15.00;99.90
12634;DHT22;6382;48.614;8.880;2023-05-07T06:53:24;15.10;99.90
12634;DHT22;6382;48.614;8.880;2023-05-07T06:55:51;15.70;99.90
12634;DHT22;6382;48.614;8.880;2023-05-07T06:58:18;15.10;99.90
12634;DHT22;6382;48.614;8.880;2023-05-07T07:00:45;15.20;99.90
12634;DHT22;6382;48.614;8.880;2023-05-07T07:03:12;15.30;99.90
12634;DHT22;6382;48.614;8.880;2023-05-07T07:05:42;15.40;99.90
12634;DHT22;6382;48.614;8.880;2023-05-07T07:08:09;15.40;99.90
12634;DHT22;6382;48.614;8.880;2023-05-07T07:10:36;15.60;99.90
12634;DHT22;6382;48.614;8.880;2023-05-07T07:13:02;15.60;99.90
12634;DHT22;6382;48.614;8.880;2023-05-07T07:15:29;16.00;99.90
12634;DHT22;6382;48.614;8.880;2023-05-07T07:17:56;16.40;99.90
12634;DHT22;6382;48.614;8.880;2023-05-07T07:20:23;16.00;99.90
12634;DHT22;6382;48.614;8.880;2023-05-07T07:22:49;16.50;99.90
12634;DHT22;6382;48.614;8.880;2023-05-07T07:25:16;17.30;99.90
12634;DHT22;6382;48.614;8.880;2023-05-07T07:27:43;16.60;99.90
12634;DHT22;6382;48.614;8.880;2023-05-07T07:30:09;17.40;99.90
12634;DHT22;6382;48.614;8.880;2023-05-07T07:32:37;16.70;99.90
12634;DHT22;6382;48.614;8.880;2023-05-07T07:35:04;16.80;99.90
12634;DHT22;6382;48.614;8.880;2023-05-07T07:37:31;16.90;99.90
12634;DHT22;6382;48.614;8.880;2023-05-07T07:39:57;17.00;99.90
12634;DHT22;6382;48.614;8.880;2023-05-07T07:42:24;17.00;99.90
12634;DHT22;6382;48.614;8.880;2023-05-07T07:44:51;17.00;99.90
12634;DHT22;6382;48.614;8.880;2023-05-07T07:47:18;17.00;99.90
12634;DHT22;6382;48.614;8.880;2023-05-07T07:49:45;17.00;99.90
12634;DHT22;6382;48.614;8.880;2023-05-07T07:52:12;17.10;99.90
12634;DHT22;6382;48.614;8.880;2023-05-07T07:54:38;17.20;99.90
12634;DHT22;6382;48.614;8.880;2023-05-07T07:57:05;17.30;99.90
12634;DHT22;6382;48.614;8.880;2023-05-07T07:59:32;17.50;99.90
12634;DHT22;6382;48.614;8.880;2023-05-07T08:01:59;17.50;99.90
12634;DHT22;6382;48.614;8.880;2023-05-07T08:04:26;17.80;99.90
12634;DHT22;6382;48.614;8.880;2023-05-07T08:06:53;18.00;99.90
12634;DHT22;6382;48.614;8.880;2023-05-07T08:09:20;18.10;99.90
12634;DHT22;6382;48.614;8.880;2023-05-07T08:11:47;18.30;99.90
12634;DHT22;6382;48.614;8.880;2023-05-07T08:14:14;18.70;99.90
12634;DHT22;6382;48.614;8.880;2023-05-07T08:16:42;18.70;99.90
12634;DHT22;6382;48.614;8.880;2023-05-07T08:19:09;18.90;99.90
12634;DHT22;6382;48.614;8.880;2023-05-07T08:21:38;19.10;99.90
12634;DHT22;6382;48.614;8.880;2023-05-07T08:24:05;21.40;99.90
12634;DHT22;6382;48.614;8.880;2023-05-07T08:26:32;19.30;99.90
12634;DHT22;6382;48.614;8.880;2023-05-07T08:28:59;19.30;99.90
12634;DHT22;6382;48.614;8.880;2023-05-07T08:31:25;20.60;99.90
12634;DHT22;6382;48.614;8.880;2023-05-07T08:33:52;19.20;99.90
12634;DHT22;6382;48.614;8.880;2023-05-07T08:36:19;19.20;99.90
12634;DHT22;6382;48.614;8.880;2023-05-07T08:38:46;19.20;99.90
12634;DHT22;6382;48.614;8.880;2023-05-07T08:41:13;19.20;99.90
12634;DHT22;6382;48.614;8.880;2023-05-07T08:43:40;19.20;99.90
12634;DHT22;6382;48.614;8.880;2023-05-07T08:46:08;19.20;99.90
12634;DHT22;6382;48.614;8.880;2023-05-07T08:48:36;19.10;99.90
12634;DHT22;6382;48.614;8.880;2023-05-07T08:51:03;19.10;99.90
12634;DHT22;6382;48.614;8.880;2023-05-07T08:53:30;19.30;99.90
12634;DHT22;6382;48.614;8.880;2023-05-07T08:55:56;19.00;99.90
12634;DHT22;6382;48.614;8.880;2023-05-07T08:58:23;20.60;99.90
12634;DHT22;6382;48.614;8.880;2023-05-07T09:00:50;18.90;99.90
12634;DHT22;6382;48.614;8.880;2023-05-07T09:03:18;18.90;99.90
12634;DHT22;6382;48.614;8.880;2023-05-07T09:05:46;18.90;99.90
12634;DHT22;6382;48.614;8.880;2023-05-07T09:08:14;19.00;99.90
12634;DHT22;6382;48.614;8.880;2023-05-07T09:10:41;19.00;99.90
12634;DHT22;6382;48.614;8.880;2023-05-07T09:13:08;19.10;99.90
12634;DHT22;6382;48.614;8.880;2023-05-07T09:15:35;19.20;99.90
12634;DHT22;6382;48.614;8.880;2023-05-07T09:18:02;19.30;99.90
12634;DHT22;6382;48.614;8.880;2023-05-07T09:20:32;19.50;99.90
12634;DHT22;6382;48.614;8.880;2023-05-07T09:22:59;19.50;99.90
12634;DHT22;6382;48.614;8.880;2023-05-07T09:25:29;21.00;99.90
12634;DHT22;6382;48.614;8.880;2023-05-07T09:27:56;19.70;99.90
12634;DHT22;6382;48.614;8.880;2023-05-07T09:30:23;19.80;99.90
12634;DHT22;6382;48.614;8.880;2023-05-07T09:32:50;19.90;99.90
12634;DHT22;6382;48.614;8.880;2023-05-07T09:35:17;20.50;99.90
12634;DHT22;6382;48.614;8.880;2023-05-07T09:37:44;20.00;99.90
12634;DHT22;6382;48.614;8.880;2023-05-07T09:40:22;20.10;99.90
12634;DHT22;6382;48.614;8.880;2023-05-07T09:42:49;20.20;99.90
12634;DHT22;6382;48.614;8.880;2023-05-07T09:45:26;20.20;99.90
12634;DHT22;6382;48.614;8.880;2023-05-07T09:47:53;20.30;99.90
12634;DHT22;6382;48.614;8.880;2023-05-07T09:50:28;21.10;99.90
12634;DHT22;6382;48.614;8.880;2023-05-07T09:52:55;20.50;99.90
12634;DHT22;6382;48.614;8.880;2023-05-07T09:55:22;20.60;99.90
12634;DHT22;6382;48.614;8.880;2023-05-07T09:57:50;20.70;99.90
12634;DHT22;6382;48.614;8.880;2023-05-07T10:00:17;20.80;99.90
12634;DHT22;6382;48.614;8.880;2023-05-07T10:02:46;20.80;99.90
12634;DHT22;6382;48.614;8.880;2023-05-07T10:05:15;20.80;99.90
12634;DHT22;6382;48.614;8.880;2023-05-07T10:07:43;22.30;99.90
12634;DHT22;6382;48.614;8.880;2023-05-07T10:10:09;21.60;99.90
12634;DHT22;6382;48.614;8.880;2023-05-07T10:12:37;20.90;99.90
12634;DHT22;6382;48.614;8.880;2023-05-07T10:15:09;21.10;99.90
12634;DHT22;6382;48.614;8.880;2023-05-07T10:17:38;21.30;99.90
12634;DHT22;6382;48.614;8.880;2023-05-07T10:20:05;21.50;99.90
12634;DHT22;6382;48.614;8.880;2023-05-07T10:22:38;21.70;99.90
12634;DHT22;6382;48.614;8.880;2023-05-07T10:25:06;21.90;99.90
12634;DHT22;6382;48.614;8.880;2023-05-07T10:27:36;22.10;99.90
12634;DHT22;6382;48.614;8.880;2023-05-07T10:30:15;22.30;99.90
12634;DHT22;6382;48.614;8.880;2023-05-07T10:32:47;22.30;99.90
12634;DHT22;6382;48.614;8.880;2023-05-07T10:35:16;22.40;99.90
12634;DHT22;6382;48.614;8.880;2023-05-07T10:37:44;22.50;99.90
12634;DHT22;6382;48.614;8.880;2023-05-07T10:40:11;22.60;99.90
12634;DHT22;6382;48.614;8.880;2023-05-07T10:42:38;22.60;99.90
12634;DHT22;6382;48.614;8.880;2023-05-07T10:45:14;22.80;99.90
12634;DHT22;6382;48.614;8.880;2023-05-07T10:50:37;23.10;99.90
12634;DHT22;6382;48.614;8.880;2023-05-07T10:55:44;23.40;99.90
12634;DHT22;6382;48.614;8.880;2023-05-07T11:00:56;23.50;99.90
12634;DHT22;6382;48.614;8.880;2023-05-07T11:03:23;23.40;99.90
12634;DHT22;6382;48.614;8.880;2023-05-07T11:06:09;23.50;99.90
12634;DHT22;6382;48.614;8.880;2023-05-07T11:08:52;23.50;99.90
12634;DHT22;6382;48.614;8.880;2023-05-07T11:11:19;23.70;99.90
12634;DHT22;6382;48.614;8.880;2023-05-07T11:13:47;23.70;99.90
12634;DHT22;6382;48.614;8.880;2023-05-07T11:16:17;23.60;99.90
12634;DHT22;6382;48.614;8.880;2023-05-07T11:18:48;23.60;99.90
12634;DHT22;6382;48.614;8.880;2023-05-07T11:21:35;23.50;99.90
12634;DHT22;6382;48.614;8.880;2023-05-07T11:24:03;23.40;99.90
12634;DHT22;6382;48.614;8.880;2023-05-07T11:26:30;23.00;99.90
12634;DHT22;6382;48.614;8.880;2023-05-07T11:28:58;23.00;99.90
12634;DHT22;6382;48.614;8.880;2023-05-07T11:31:27;22.70;99.90
12634;DHT22;6382;48.614;8.880;2023-05-07T11:33:55;24.30;99.90
12634;DHT22;6382;48.614;8.880;2023-05-07T11:36:22;22.40;99.90
12634;DHT22;6382;48.614;8.880;2023-05-07T11:38:49;22.30;99.90
12634;DHT22;6382;48.614;8.880;2023-05-07T11:41:16;24.40;99.90
12634;DHT22;6382;48.614;8.880;2023-05-07T11:43:53;22.20;99.90
12634;DHT22;6382;48.614;8.880;2023-05-07T11:46:20;22.10;99.90
12634;DHT22;6382;48.614;8.880;2023-05-07T11:48:47;21.90;99.90
12634;DHT22;6382;48.614;8.880;2023-05-07T11:51:14;21.50;99.90
12634;DHT22;6382;48.614;8.880;2023-05-07T11:53:45;21.10;99.90
12634;DHT22;6382;48.614;8.880;2023-05-07T11:56:12;20.80;99.90
12634;DHT22;6382;48.614;8.880;2023-05-07T11:58:39;20.50;99.90
12634;DHT22;6382;48.614;8.880;2023-05-07T12:01:07;20.00;99.90
12634;DHT22;6382;48.614;8.880;2023-05-07T12:03:34;19.40;99.90
12634;DHT22;6382;48.614;8.880;2023-05-07T12:06:02;21.60;99.90
12634;DHT22;6382;48.614;8.880;2023-05-07T12:08:29;18.60;99.90
12634;DHT22;6382;48.614;8.880;2023-05-07T12:10:55;18.50;99.90
12634;DHT22;6382;48.614;8.880;2023-05-07T12:13:24;18.50;99.90
12634;DHT22;6382;48.614;8.880;2023-05-07T12:15:52;18.40;99.90
12634;DHT22;6382;48.614;8.880;2023-05-07T12:18:18;18.30;99.90
12634;DHT22;6382;48.614;8.880;2023-05-07T12:20:46;20.20;99.90
12634;DHT22;6382;48.614;8.880;2023-05-07T12:23:13;18.00;99.90
12634;DHT22;6382;48.614;8.880;2023-05-07T12:25:41;17.90;99.90
12634;DHT22;6382;48.614;8.880;2023-05-07T12:28:13;21.10;99.90
12634;DHT22;6382;48.614;8.880;2023-05-07T12:30:44;17.80;99.90
12634;DHT22;6382;48.614;8.880;2023-05-07T12:33:11;17.90;99.90
12634;DHT22;6382;48.614;8.880;2023-05-07T12:35:39;18.10;99.90
12634;DHT22;6382;48.614;8.880;2023-05-07T12:38:10;18.10;99.90
12634;DHT22;6382;48.614;8.880;2023-05-07T12:40:38;18.10;99.90
12634;DHT22;6382;48.614;8.880;2023-05-07T12:43:05;18.20;99.90
12634;DHT22;6382;48.614;8.880;2023-05-07T12:45:36;18.20;99.90
12634;DHT22;6382;48.614;8.880;2023-05-07T12:48:03;18.40;99.90
12634;DHT22;6382;48.614;8.880;2023-05-07T12:50:32;18.10;99.90
12634;DHT22;6382;48.614;8.880;2023-05-07T12:52:59;18.10;99.90
12634;DHT22;6382;48.614;8.880;2023-05-07T12:55:26;18.00;99.90
12634;DHT22;6382;48.614;8.880;2023-05-07T12:58:00;18.00;99.90
12634;DHT22;6382;48.614;8.880;2023-05-07T13:00:33;19.50;99.90
12634;DHT22;6382;48.614;8.880;2023-05-07T13:02:59;17.80;99.90
12634;DHT22;6382;48.614;8.880;2023-05-07T13:05:26;17.70;99.90
12634;DHT22;6382;48.614;8.880;2023-05-07T13:07:54;17.50;99.90
12634;DHT22;6382;48.614;8.880;2023-05-07T13:10:21;17.50;99.90
12634;DHT22;6382;48.614;8.880;2023-05-07T13:12:48;17.30;99.90
12634;DHT22;6382;48.614;8.880;2023-05-07T13:15:16;17.10;99.90
12634;DHT22;6382;48.614;8.880;2023-05-07T13:17:43;16.90;99.90
12634;DHT22;6382;48.614;8.880;2023-05-07T13:20:10;16.80;99.90
12634;DHT22;6382;48.614;8.880;2023-05-07T13:22:37;16.70;99.90
12634;DHT22;6382;48.614;8.880;2023-05-07T13:25:04;16.60;99.90
12634;DHT22;6382;48.614;8.880;2023-05-07T13:27:31;16.60;99.90
12634;DHT22;6382;48.614;8.880;2023-05-07T13:29:58;17.90;99.90
12634;DHT22;6382;48.614;8.880;2023-05-07T13:32:24;16.50;99.90
12634;DHT22;6382;48.614;8.880;2023-05-07T13:34:51;16.50;99.90
12634;DHT22;6382;48.614;8.880;2023-05-07T13:37:18;17.70;99.90
12634;DHT22;6382;48.614;8.880;2023-05-07T13:39:45;16.30;99.90
12634;DHT22;6382;48.614;8.880;2023-05-07T13:42:12;16.10;99.90
12634;DHT22;6382;48.614;8.880;2023-05-07T13:44:39;18.30;99.90
12634;DHT22;6382;48.614;8.880;2023-05-07T13:47:05;15.90;99.90
12634;DHT22;6382;48.614;8.880;2023-05-07T13:49:32;16.10;99.90
12634;DHT22;6382;48.614;8.880;2023-05-07T13:51:59;15.60;99.90
12634;DHT22;6382;48.614;8.880;2023-05-07T13:54:25;15.60;99.90
12634;DHT22;6382;48.614;8.880;2023-05-07T13:56:52;15.60;99.90
12634;DHT22;6382;48.614;8.880;2023-05-07T13:59:18;15.60;99.90
12634;DHT22;6382;48.614;8.880;2023-05-07T14:01:45;15.90;99.90
12634;DHT22;6382;48.614;8.880;2023-05-07T14:04:12;15.60;99.90
12634;DHT22;6382;48.614;8.880;2023-05-07T14:06:39;15.70;99.90
12634;DHT22;6382;48.614;8.880;2023-05-07T14:09:05;16.30;99.90
12634;DHT22;6382;48.614;8.880;2023-05-07T14:11:33;15.70;99.90
12634;DHT22;6382;48.614;8.880;2023-05-07T14:14:01;18.70;99.90
12634;DHT22;6382;48.614;8.880;2023-05-07T14:16:28;15.70;99.90
12634;DHT22;6382;48.614;8.880;2023-05-07T14:18:55;17.10;99.90
12634;DHT22;6382;48.614;8.880;2023-05-07T14:21:24;15.60;99.90
12634;DHT22;6382;48.614;8.880;2023-05-07T14:23:50;15.60;99.90
12634;DHT22;6382;48.614;8.880;2023-05-07T14:26:17;15.80;99.90
12634;DHT22;6382;48.614;8.880;2023-05-07T14:28:44;15.50;99.90
12634;DHT22;6382;48.614;8.880;2023-05-07T14:31:12;15.40;99.90
12634;DHT22;6382;48.614;8.880;2023-05-07T14:33:39;15.30;99.90
12634;DHT22;6382;48.614;8.880;2023-05-07T14:36:07;15.10;99.90
12634;DHT22;6382;48.614;8.880;2023-05-07T14:38:34;15.00;99.90
12634;DHT22;6382;48.614;8.880;2023-05-07T14:41:01;14.80;99.90
12634;DHT22;6382;48.614;8.880;2023-05-07T14:43:28;14.70;99.90
12634;DHT22;6382;48.614;8.880;2023-05-07T14:45:54;14.80;99.90
12634;DHT22;6382;48.614;8.880;2023-05-07T14:48:21;16.90;99.90
12634;DHT22;6382;48.614;8.880;2023-05-07T14:50:48;15.10;99.90
12634;DHT22;6382;48.614;8.880;2023-05-07T14:53:15;15.70;99.90
12634;DHT22;6382;48.614;8.880;2023-05-07T14:55:42;14.60;99.90
12634;DHT22;6382;48.614;8.880;2023-05-07T14:58:09;14.60;99.90
12634;DHT22;6382;48.614;8.880;2023-05-07T15:00:37;15.00;99.90
12634;DHT22;6382;48.614;8.880;2023-05-07T15:03:07;14.60;99.90
12634;DHT22;6382;48.614;8.880;2023-05-07T15:05:35;15.00;99.90
12634;DHT22;6382;48.614;8.880;2023-05-07T15:08:02;16.90;99.90
12634;DHT22;6382;48.614;8.880;2023-05-07T15:10:29;14.60;99.90
12634;DHT22;6382;48.614;8.880;2023-05-07T15:12:55;14.60;99.90
12634;DHT22;6382;48.614;8.880;2023-05-07T15:15:22;14.70;99.90
12634;DHT22;6382;48.614;8.880;2023-05-07T15:17:49;14.70;99.90
12634;DHT22;6382;48.614;8.880;2023-05-07T15:20:16;14.70;99.90
12634;DHT22;6382;48.614;8.880;2023-05-07T15:22:44;14.70;99.90
12634;DHT22;6382;48.614;8.880;2023-05-07T15:25:11;14.70;99.90
12634;DHT22;6382;48.614;8.880;2023-05-07T15:27:38;14.80;99.90
12634;DHT22;6382;48.614;8.880;2023-05-07T15:30:05;16.50;99.90
12634;DHT22;6382;48.614;8.880;2023-05-07T15:32:32;14.90;99.90
12634;DHT22;6382;48.614;8.880;2023-05-07T15:34:59;15.00;99.90
12634;DHT22;6382;48.614;8.880;2023-05-07T15:37:26;15.20;99.90
12634;DHT22;6382;48.614;8.880;2023-05-07T15:39:53;16.80;99.90
12634;DHT22;6382;48.614;8.880;2023-05-07T15:42:20;16.20;99.90
12634;DHT22;6382;48.614;8.880;2023-05-07T15:44:47;15.70;99.90
12634;DHT22;6382;48.614;8.880;2023-05-07T15:47:14;17.10;99.90
12634;DHT22;6382;48.614;8.880;2023-05-07T15:49:41;16.00;99.90
12634;DHT22;6382;48.614;8.880;2023-05-07T15:52:08;16.00;99.90
12634;DHT22;6382;48.614;8.880;2023-05-07T15:54:40;15.90;99.90
12634;DHT22;6382;48.614;8.880;2023-05-07T15:57:07;16.00;99.90
12634;DHT22;6382;48.614;8.880;2023-05-07T15:59:34;16.00;99.90